sensor_id;sensor_type;location;lat;lon;timestamp;pressure;altitude;pressure_sealevel;temperature;humidity
68179;BME280;69812;42.632;23.440;2024-02-23T00:01:09;94841.97;;;2.82;81.27
68179;BME280;69812;42.632;23.440;2024-02-23T00:03:37;94861.72;;;2.77;81.83
68179;BME280;69812;42.632;23.440;2024-02-23T00:06:02;94857.13;;;2.69;82.19
68179;BME280;69812;42.632;23.440;2024-02-23T00:08:28;94833.06;;;2.47;82.85
68179;BME280;69812;42.632;23.440;2024-02-23T00:10:53;94857.38;;;2.64;82.56
68179;BME280;69812;42.632;23.440;2024-02-23T00:13:19;94853.69;;;2.41;83.09
68179;BME280;69812;42.632;23.440;2024-02-23T00:15:44;94840.88;;;2.30;83.17
68179;BME280;69812;42.632;23.440;2024-02-23T00:18:09;94849.53;;;2.26;84.42
68179;BME280;69812;42.632;23.440;2024-02-23T00:20:36;94852.91;;;2.41;84.08
68179;BME280;69812;42.632;23.440;2024-02-23T00:23:02;94825.03;;;2.26;83.88
68179;BME280;69812;42.632;23.440;2024-02-23T00:25:28;94864.63;;;2.28;83.96
68179;BME280;69812;42.632;23.440;2024-02-23T00:27:53;94861.03;;;2.17;84.55
68179;BME280;69812;42.632;23.440;2024-02-23T00:30:18;94838.41;;;2.14;84.75
68179;BME280;69812;42.632;23.440;2024-02-23T00:32:44;94842.84;;;2.25;84.63
68179;BME280;69812;42.632;23.440;2024-02-23T00:35:09;94849.19;;;2.32;84.09
68179;BME280;69812;42.632;23.440;2024-02-23T00:37:35;94860.56;;;2.39;84.07
68179;BME280;69812;42.632;23.440;2024-02-23T00:40:04;94844.47;;;2.55;83.72
68179;BME280;69812;42.632;23.440;2024-02-23T00:42:35;94829.81;;;2.45;83.86
68179;BME280;69812;42.632;23.440;2024-02-23T00:45:00;94839.50;;;2.39;84.39
68179;BME280;69812;42.632;23.440;2024-02-23T00:47:28;94842.41;;;2.33;84.31
68179;BME280;69812;42.632;23.440;2024-02-23T00:49:54;94830.00;;;2.14;84.81
68179;BME280;69812;42.632;23.440;2024-02-23T00:52:19;94827.84;;;2.22;84.85
68179;BME280;69812;42.632;23.440;2024-02-23T00:54:45;94816.81;;;2.09;84.44
68179;BME280;69812;42.632;23.440;2024-02-23T00:57:10;94820.88;;;2.11;85.00
68179;BME280;69812;42.632;23.440;2024-02-23T00:59:36;94830.63;;;2.03;85.41
68179;BME280;69812;42.632;23.440;2024-02-23T01:02:01;94828.16;;;2.01;86.06
68179;BME280;69812;42.632;23.440;2024-02-23T01:04:27;94822.84;;;1.92;86.25
68179;BME280;69812;42.632;23.440;2024-02-23T01:06:55;94819.50;;;1.91;86.34
68179;BME280;69812;42.632;23.440;2024-02-23T01:09:20;94822.38;;;1.85;86.67
68179;BME280;69812;42.632;23.440;2024-02-23T01:11:51;94828.06;;;1.89;87.09
68179;BME280;69812;42.632;23.440;2024-02-23T01:14:16;94823.44;;;1.81;86.88
68179;BME280;69812;42.632;23.440;2024-02-23T01:16:42;94804.47;;;1.74;87.23
68179;BME280;69812;42.632;23.440;2024-02-23T01:19:10;94809.41;;;1.61;87.13
68179;BME280;69812;42.632;23.440;2024-02-23T01:21:36;94821.00;;;1.65;87.62
68179;BME280;69812;42.632;23.440;2024-02-23T01:24:01;94826.94;;;1.64;87.58
68179;BME280;69812;42.632;23.440;2024-02-23T01:26:26;94815.84;;;1.81;86.94
68179;BME280;69812;42.632;23.440;2024-02-23T01:28:52;94810.00;;;1.80;86.66
68179;BME280;69812;42.632;23.440;2024-02-23T01:31:18;94813.03;;;1.71;87.01
68179;BME280;69812;42.632;23.440;2024-02-23T01:33:43;94815.75;;;1.38;87.54
68179;BME280;69812;42.632;23.440;2024-02-23T01:36:09;94814.25;;;1.50;87.77
68179;BME280;69812;42.632;23.440;2024-02-23T01:38:35;94811.41;;;1.40;88.15
68179;BME280;69812;42.632;23.440;2024-02-23T01:41:00;94788.41;;;1.44;88.28
68179;BME280;69812;42.632;23.440;2024-02-23T01:43:26;94798.47;;;1.60;88.07
68179;BME280;69812;42.632;23.440;2024-02-23T01:45:51;94787.19;;;1.66;87.14
68179;BME280;69812;42.632;23.440;2024-02-23T01:48:17;94799.19;;;1.62;87.15
68179;BME280;69812;42.632;23.440;2024-02-23T01:50:43;94795.91;;;1.46;87.67
68179;BME280;69812;42.632;23.440;2024-02-23T01:53:10;94803.97;;;1.53;87.98
68179;BME280;69812;42.632;23.440;2024-02-23T01:55:42;94794.13;;;1.62;87.31
68179;BME280;69812;42.632;23.440;2024-02-23T01:58:10;94772.34;;;1.60;87.41
68179;BME280;69812;42.632;23.440;2024-02-23T02:00:36;94755.72;;;1.56;87.19
68179;BME280;69812;42.632;23.440;2024-02-23T02:03:02;94770.19;;;1.68;87.52
68179;BME280;69812;42.632;23.440;2024-02-23T02:05:28;94762.34;;;1.73;86.41
68179;BME280;69812;42.632;23.440;2024-02-23T02:07:55;94775.03;;;1.87;85.88
68179;BME280;69812;42.632;23.440;2024-02-23T02:10:24;94758.38;;;1.97;85.61
68179;BME280;69812;42.632;23.440;2024-02-23T02:12:50;94755.03;;;1.97;85.41
68179;BME280;69812;42.632;23.440;2024-02-23T02:15:15;94770.03;;;1.85;85.70
68179;BME280;69812;42.632;23.440;2024-02-23T02:17:41;94755.03;;;1.82;85.77
68179;BME280;69812;42.632;23.440;2024-02-23T02:20:13;94778.38;;;2.02;85.17
68179;BME280;69812;42.632;23.440;2024-02-23T02:22:38;94762.47;;;2.00;83.96
68179;BME280;69812;42.632;23.440;2024-02-23T02:25:05;94758.66;;;1.78;84.87
68179;BME280;69812;42.632;23.440;2024-02-23T02:27:31;94770.66;;;1.75;85.69
68179;BME280;69812;42.632;23.440;2024-02-23T02:29:56;94776.03;;;1.84;85.70
68179;BME280;69812;42.632;23.440;2024-02-23T02:32:23;94778.31;;;1.59;85.99
68179;BME280;69812;42.632;23.440;2024-02-23T02:34:48;94781.19;;;1.53;86.54
68179;BME280;69812;42.632;23.440;2024-02-23T02:37:14;94773.75;;;1.35;87.30
68179;BME280;69812;42.632;23.440;2024-02-23T02:39:41;94782.47;;;1.30;87.97
68179;BME280;69812;42.632;23.440;2024-02-23T02:42:14;94758.66;;;1.34;88.66
68179;BME280;69812;42.632;23.440;2024-02-23T02:44:40;94785.81;;;1.60;86.86
68179;BME280;69812;42.632;23.440;2024-02-23T02:47:05;94778.09;;;1.92;85.62
68179;BME280;69812;42.632;23.440;2024-02-23T02:49:31;94765.69;;;1.73;85.61
68179;BME280;69812;42.632;23.440;2024-02-23T02:51:56;94757.09;;;1.61;86.42
68179;BME280;69812;42.632;23.440;2024-02-23T02:54:21;94746.59;;;1.53;86.44
68179;BME280;69812;42.632;23.440;2024-02-23T02:56:50;94764.94;;;1.57;86.14
68179;BME280;69812;42.632;23.440;2024-02-23T02:59:19;94778.78;;;1.66;86.49
68179;BME280;69812;42.632;23.440;2024-02-23T03:01:44;94778.66;;;1.53;86.38
68179;BME280;69812;42.632;23.440;2024-02-23T03:04:12;94775.41;;;1.51;87.26
68179;BME280;69812;42.632;23.440;2024-02-23T03:06:37;94768.03;;;1.62;86.19
68179;BME280;69812;42.632;23.440;2024-02-23T03:09:05;94755.44;;;1.60;85.80
68179;BME280;69812;42.632;23.440;2024-02-23T03:11:32;94771.75;;;1.71;85.80
68179;BME280;69812;42.632;23.440;2024-02-23T03:13:57;94770.22;;;1.97;84.54
68179;BME280;69812;42.632;23.440;2024-02-23T03:16:23;94751.94;;;1.77;84.60
68179;BME280;69812;42.632;23.440;2024-02-23T03:18:51;94764.09;;;1.87;84.88
68179;BME280;69812;42.632;23.440;2024-02-23T03:21:16;94774.56;;;1.95;84.64
68179;BME280;69812;42.632;23.440;2024-02-23T03:23:42;94768.31;;;1.72;85.16
68179;BME280;69812;42.632;23.440;2024-02-23T03:26:08;94783.50;;;1.72;85.57
68179;BME280;69812;42.632;23.440;2024-02-23T03:28:33;94783.41;;;1.88;83.99
68179;BME280;69812;42.632;23.440;2024-02-23T03:31:00;94784.41;;;1.85;84.31
68179;BME280;69812;42.632;23.440;2024-02-23T03:33:25;94777.81;;;1.82;84.64
68179;BME280;69812;42.632;23.440;2024-02-23T03:35:50;94792.44;;;1.77;84.90
68179;BME280;69812;42.632;23.440;2024-02-23T03:38:18;94792.97;;;1.68;85.16
68179;BME280;69812;42.632;23.440;2024-02-23T03:40:44;94784.47;;;1.69;85.01
68179;BME280;69812;42.632;23.440;2024-02-23T03:43:09;94777.41;;;1.60;85.50
68179;BME280;69812;42.632;23.440;2024-02-23T03:45:36;94781.25;;;1.67;85.62
68179;BME280;69812;42.632;23.440;2024-02-23T03:48:03;94783.31;;;1.75;85.55
68179;BME280;69812;42.632;23.440;2024-02-23T03:50:28;94770.56;;;1.76;85.45
68179;BME280;69812;42.632;23.440;2024-02-23T03:52:54;94777.25;;;1.77;84.88
68179;BME280;69812;42.632;23.440;2024-02-23T03:55:19;94777.59;;;1.71;84.84
68179;BME280;69812;42.632;23.440;2024-02-23T03:57:47;94783.78;;;1.81;84.38
68179;BME280;69812;42.632;23.440;2024-02-23T04:00:13;94796.50;;;1.80;85.05
68179;BME280;69812;42.632;23.440;2024-02-23T04:02:39;94792.16;;;1.82;84.87
68179;BME280;69812;42.632;23.440;2024-02-23T04:05:05;94783.16;;;1.78;85.49
68179;BME280;69812;42.632;23.440;2024-02-23T04:07:30;94792.53;;;1.90;85.37
68179;BME280;69812;42.632;23.440;2024-02-23T04:09:56;94796.44;;;1.96;85.18
68179;BME280;69812;42.632;23.440;2024-02-23T04:12:21;94770.41;;;2.08;83.24
68179;BME280;69812;42.632;23.440;2024-02-23T04:14:47;94780.72;;;2.05;83.30
68179;BME280;69812;42.632;23.440;2024-02-23T04:17:12;94768.50;;;1.83;84.11
68179;BME280;69812;42.632;23.440;2024-02-23T04:19:39;94793.81;;;2.12;84.19
68179;BME280;69812;42.632;23.440;2024-02-23T04:22:06;94763.81;;;2.05;82.77
68179;BME280;69812;42.632;23.440;2024-02-23T04:24:33;94786.41;;;2.09;83.45
68179;BME280;69812;42.632;23.440;2024-02-23T04:26:59;94786.31;;;1.96;83.75
68179;BME280;69812;42.632;23.440;2024-02-23T04:29:25;94779.28;;;1.87;84.29
68179;BME280;69812;42.632;23.440;2024-02-23T04:31:50;94789.56;;;1.83;84.40
68179;BME280;69812;42.632;23.440;2024-02-23T04:34:15;94787.00;;;1.69;84.94
68179;BME280;69812;42.632;23.440;2024-02-23T04:36:45;94795.72;;;1.49;85.65
68179;BME280;69812;42.632;23.440;2024-02-23T04:39:11;94804.97;;;1.50;85.89
68179;BME280;69812;42.632;23.440;2024-02-23T04:41:36;94808.75;;;1.57;85.44
68179;BME280;69812;42.632;23.440;2024-02-23T04:44:02;94804.22;;;1.48;86.30
68179;BME280;69812;42.632;23.440;2024-02-23T04:46:27;94793.47;;;1.44;86.75
68179;BME280;69812;42.632;23.440;2024-02-23T04:48:52;94800.53;;;1.54;86.34
68179;BME280;69812;42.632;23.440;2024-02-23T04:51:22;94804.34;;;1.31;86.44
68179;BME280;69812;42.632;23.440;2024-02-23T04:53:49;94800.19;;;1.30;86.02
68179;BME280;69812;42.632;23.440;2024-02-23T04:56:14;94799.81;;;1.21;87.89
68179;BME280;69812;42.632;23.440;2024-02-23T04:58:40;94795.22;;;0.98;87.65
68179;BME280;69812;42.632;23.440;2024-02-23T05:01:08;94808.16;;;0.76;88.19
68179;BME280;69812;42.632;23.440;2024-02-23T05:03:35;94795.47;;;0.93;87.94
68179;BME280;69812;42.632;23.440;2024-02-23T05:06:02;94809.78;;;1.09;88.78
68179;BME280;69812;42.632;23.440;2024-02-23T05:08:30;94816.63;;;1.07;88.77
68179;BME280;69812;42.632;23.440;2024-02-23T05:10:56;94822.50;;;1.07;87.59
68179;BME280;69812;42.632;23.440;2024-02-23T05:13:22;94813.84;;;0.95;87.55
68179;BME280;69812;42.632;23.440;2024-02-23T05:15:47;94812.81;;;1.30;88.55
68179;BME280;69812;42.632;23.440;2024-02-23T05:18:13;94812.19;;;1.56;87.19
68179;BME280;69812;42.632;23.440;2024-02-23T05:20:38;94832.16;;;1.31;86.93
68179;BME280;69812;42.632;23.440;2024-02-23T05:23:04;94819.50;;;1.00;87.91
68179;BME280;69812;42.632;23.440;2024-02-23T05:25:29;94825.22;;;1.34;88.37
68179;BME280;69812;42.632;23.440;2024-02-23T05:27:57;94811.81;;;1.48;87.42
68179;BME280;69812;42.632;23.440;2024-02-23T05:30:22;94841.16;;;1.51;87.24
68179;BME280;69812;42.632;23.440;2024-02-23T05:32:48;94832.50;;;1.55;87.04
68179;BME280;69812;42.632;23.440;2024-02-23T05:35:13;94840.75;;;2.03;88.05
68179;BME280;69812;42.632;23.440;2024-02-23T05:37:40;94841.16;;;2.81;85.45
68179;BME280;69812;42.632;23.440;2024-02-23T05:40:06;94833.31;;;3.53;82.62
68179;BME280;69812;42.632;23.440;2024-02-23T05:42:36;94843.56;;;4.43;77.61
68179;BME280;69812;42.632;23.440;2024-02-23T05:45:01;94839.88;;;5.33;74.94
68179;BME280;69812;42.632;23.440;2024-02-23T05:47:26;94837.97;;;6.08;70.53
68179;BME280;69812;42.632;23.440;2024-02-23T05:49:52;94836.13;;;6.44;66.11
68179;BME280;69812;42.632;23.440;2024-02-23T05:52:17;94845.75;;;6.63;65.28
68179;BME280;69812;42.632;23.440;2024-02-23T05:54:42;94856.25;;;7.14;63.87
68179;BME280;69812;42.632;23.440;2024-02-23T05:57:08;94863.19;;;7.67;63.03
68179;BME280;69812;42.632;23.440;2024-02-23T05:59:33;94859.28;;;8.26;60.39
68179;BME280;69812;42.632;23.440;2024-02-23T06:02:01;94850.81;;;8.77;57.29
68179;BME280;69812;42.632;23.440;2024-02-23T06:04:26;94865.47;;;9.06;55.84
68179;BME280;69812;42.632;23.440;2024-02-23T06:06:55;94861.41;;;9.63;54.87
68179;BME280;69812;42.632;23.440;2024-02-23T06:09:21;94856.16;;;8.64;56.10
68179;BME280;69812;42.632;23.440;2024-02-23T06:11:51;94868.41;;;9.01;56.76
68179;BME280;69812;42.632;23.440;2024-02-23T06:14:17;94853.50;;;9.07;55.93
68179;BME280;69812;42.632;23.440;2024-02-23T06:16:43;94863.28;;;10.00;53.52
68179;BME280;69812;42.632;23.440;2024-02-23T06:19:08;94869.75;;;10.14;51.71
68179;BME280;69812;42.632;23.440;2024-02-23T06:21:36;94863.94;;;10.32;52.51
68179;BME280;69812;42.632;23.440;2024-02-23T06:24:01;94868.16;;;10.70;50.55
68179;BME280;69812;42.632;23.440;2024-02-23T06:26:27;94857.06;;;11.52;49.45
68179;BME280;69812;42.632;23.440;2024-02-23T06:28:54;94878.50;;;12.33;47.43
68179;BME280;69812;42.632;23.440;2024-02-23T06:31:20;94876.63;;;12.95;45.66
68179;BME280;69812;42.632;23.440;2024-02-23T06:33:50;94876.78;;;11.80;46.54
68179;BME280;69812;42.632;23.440;2024-02-23T06:36:17;94861.88;;;10.25;50.41
68179;BME280;69812;42.632;23.440;2024-02-23T06:38:46;94861.50;;;11.15;49.38
68179;BME280;69812;42.632;23.440;2024-02-23T06:41:12;94868.63;;;12.02;47.12
68179;BME280;69812;42.632;23.440;2024-02-23T06:43:37;94874.53;;;12.39;47.01
68179;BME280;69812;42.632;23.440;2024-02-23T06:46:07;94861.50;;;13.01;44.75
68179;BME280;69812;42.632;23.440;2024-02-23T06:48:34;94869.91;;;13.37;44.31
68179;BME280;69812;42.632;23.440;2024-02-23T06:51:00;94876.66;;;13.30;47.20
68179;BME280;69812;42.632;23.440;2024-02-23T06:53:25;94876.59;;;13.81;43.21
68179;BME280;69812;42.632;23.440;2024-02-23T06:55:50;94881.78;;;13.97;42.42
68179;BME280;69812;42.632;23.440;2024-02-23T06:58:16;94868.38;;;13.77;42.72
68179;BME280;69812;42.632;23.440;2024-02-23T07:00:44;94855.63;;;14.33;41.76
68179;BME280;69812;42.632;23.440;2024-02-23T07:03:09;94874.34;;;14.02;41.15
68179;BME280;69812;42.632;23.440;2024-02-23T07:05:37;94866.53;;;13.02;43.87
68179;BME280;69812;42.632;23.440;2024-02-23T07:08:02;94865.34;;;14.06;41.82
68179;BME280;69812;42.632;23.440;2024-02-23T07:10:28;94875.50;;;14.00;42.29
68179;BME280;69812;42.632;23.440;2024-02-23T07:12:53;94881.31;;;13.34;44.60
68179;BME280;69812;42.632;23.440;2024-02-23T07:15:20;94864.47;;;13.14;45.52
68179;BME280;69812;42.632;23.440;2024-02-23T07:17:45;94871.72;;;11.88;47.82
68179;BME280;69812;42.632;23.440;2024-02-23T07:20:13;94880.66;;;12.20;47.92
68179;BME280;69812;42.632;23.440;2024-02-23T07:22:39;94870.56;;;11.09;49.76
68179;BME280;69812;42.632;23.440;2024-02-23T07:25:05;94859.84;;;11.23;50.12
68179;BME280;69812;42.632;23.440;2024-02-23T07:27:33;94841.72;;;11.43;49.26
68179;BME280;69812;42.632;23.440;2024-02-23T07:29:59;94858.22;;;11.40;51.23
68179;BME280;69812;42.632;23.440;2024-02-23T07:32:28;94863.75;;;11.81;49.46
68179;BME280;69812;42.632;23.440;2024-02-23T07:34:54;94861.81;;;12.37;48.26
68179;BME280;69812;42.632;23.440;2024-02-23T07:37:20;94852.88;;;12.23;47.63
68179;BME280;69812;42.632;23.440;2024-02-23T07:39:45;94836.44;;;11.62;50.21
68179;BME280;69812;42.632;23.440;2024-02-23T07:42:10;94859.28;;;11.65;47.52
68179;BME280;69812;42.632;23.440;2024-02-23T07:44:38;94868.59;;;11.48;49.36
68179;BME280;69812;42.632;23.440;2024-02-23T07:47:03;94869.41;;;10.66;50.64
68179;BME280;69812;42.632;23.440;2024-02-23T07:49:29;94859.91;;;10.39;52.13
68179;BME280;69812;42.632;23.440;2024-02-23T07:52:03;94861.88;;;9.28;55.58
68179;BME280;69812;42.632;23.440;2024-02-23T07:54:28;94855.09;;;9.08;56.03
68179;BME280;69812;42.632;23.440;2024-02-23T07:56:53;94861.25;;;9.45;56.68
68179;BME280;69812;42.632;23.440;2024-02-23T07:59:23;94886.06;;;9.84;54.41
68179;BME280;69812;42.632;23.440;2024-02-23T08:01:49;94865.94;;;9.31;55.78
68179;BME280;69812;42.632;23.440;2024-02-23T08:04:14;94864.34;;;9.39;56.29
68179;BME280;69812;42.632;23.440;2024-02-23T08:06:43;94866.25;;;9.76;57.00
68179;BME280;69812;42.632;23.440;2024-02-23T08:09:08;94855.44;;;10.21;52.98
68179;BME280;69812;42.632;23.440;2024-02-23T08:11:34;94866.25;;;10.35;54.78
68179;BME280;69812;42.632;23.440;2024-02-23T08:14:00;94862.66;;;10.55;54.73
68179;BME280;69812;42.632;23.440;2024-02-23T08:16:26;94845.00;;;10.89;53.83
68179;BME280;69812;42.632;23.440;2024-02-23T08:18:52;94841.44;;;10.63;52.04
68179;BME280;69812;42.632;23.440;2024-02-23T08:21:17;94857.84;;;10.42;52.57
68179;BME280;69812;42.632;23.440;2024-02-23T08:23:44;94864.75;;;10.79;52.33
68179;BME280;69812;42.632;23.440;2024-02-23T08:26:09;94839.88;;;10.80;50.91
68179;BME280;69812;42.632;23.440;2024-02-23T08:28:37;94847.00;;;10.96;50.27
68179;BME280;69812;42.632;23.440;2024-02-23T08:31:02;94845.56;;;11.11;50.84
68179;BME280;69812;42.632;23.440;2024-02-23T08:33:27;94840.97;;;11.33;50.01
68179;BME280;69812;42.632;23.440;2024-02-23T08:35:59;94842.97;;;10.83;50.27
68179;BME280;69812;42.632;23.440;2024-02-23T08:38:24;94848.25;;;10.82;51.55
68179;BME280;69812;42.632;23.440;2024-02-23T08:40:59;94848.63;;;10.59;51.52
68179;BME280;69812;42.632;23.440;2024-02-23T08:43:27;94843.25;;;10.23;51.64
68179;BME280;69812;42.632;23.440;2024-02-23T08:45:55;94828.59;;;10.16;53.13
68179;BME280;69812;42.632;23.440;2024-02-23T08:48:30;94839.00;;;10.04;54.02
68179;BME280;69812;42.632;23.440;2024-02-23T08:50:55;94847.19;;;10.08;53.19
68179;BME280;69812;42.632;23.440;2024-02-23T08:53:23;94833.03;;;10.14;52.93
68179;BME280;69812;42.632;23.440;2024-02-23T08:55:48;94842.50;;;10.13;54.29
68179;BME280;69812;42.632;23.440;2024-02-23T08:58:14;94839.22;;;10.21;54.21
68179;BME280;69812;42.632;23.440;2024-02-23T09:00:39;94846.53;;;10.16;54.65
68179;BME280;69812;42.632;23.440;2024-02-23T09:03:05;94855.97;;;10.25;54.01
68179;BME280;69812;42.632;23.440;2024-02-23T09:05:33;94842.63;;;10.21;55.09
68179;BME280;69812;42.632;23.440;2024-02-23T09:08:17;94837.63;;;10.20;54.51
68179;BME280;69812;42.632;23.440;2024-02-23T09:10:58;94850.97;;;10.04;55.55
68179;BME280;69812;42.632;23.440;2024-02-23T09:13:30;94848.72;;;10.11;55.58
68179;BME280;69812;42.632;23.440;2024-02-23T09:15:56;94833.31;;;10.11;56.11
68179;BME280;69812;42.632;23.440;2024-02-23T09:18:24;94850.56;;;10.28;55.16
68179;BME280;69812;42.632;23.440;2024-02-23T09:20:50;94844.22;;;10.32;54.75
68179;BME280;69812;42.632;23.440;2024-02-23T09:23:18;94847.56;;;10.52;54.01
68179;BME280;69812;42.632;23.440;2024-02-23T09:25:45;94838.84;;;10.73;52.30
68179;BME280;69812;42.632;23.440;2024-02-23T09:28:11;94822.22;;;11.04;49.44
68179;BME280;69812;42.632;23.440;2024-02-23T09:30:37;94830.69;;;10.87;51.62
68179;BME280;69812;42.632;23.440;2024-02-23T09:33:03;94839.78;;;10.99;51.78
68179;BME280;69812;42.632;23.440;2024-02-23T09:35:36;94836.81;;;11.04;51.32
68179;BME280;69812;42.632;23.440;2024-02-23T09:38:01;94847.13;;;11.22;50.69
68179;BME280;69812;42.632;23.440;2024-02-23T09:40:27;94835.22;;;11.21;51.07
68179;BME280;69812;42.632;23.440;2024-02-23T09:42:59;94839.75;;;11.37;50.20
68179;BME280;69812;42.632;23.440;2024-02-23T09:45:25;94828.88;;;11.43;50.38
68179;BME280;69812;42.632;23.440;2024-02-23T09:47:53;94825.94;;;11.74;50.24
68179;BME280;69812;42.632;23.440;2024-02-23T09:50:20;94835.06;;;12.04;48.77
68179;BME280;69812;42.632;23.440;2024-02-23T09:52:50;94810.03;;;12.14;47.97
68179;BME280;69812;42.632;23.440;2024-02-23T09:55:21;94822.41;;;12.10;46.46
68179;BME280;69812;42.632;23.440;2024-02-23T09:57:48;94833.19;;;12.40;46.51
68179;BME280;69812;42.632;23.440;2024-02-23T10:00:16;94824.88;;;12.46;47.08
68179;BME280;69812;42.632;23.440;2024-02-23T10:02:45;94824.81;;;12.38;45.91
68179;BME280;69812;42.632;23.440;2024-02-23T10:05:11;94809.59;;;12.45;45.60
68179;BME280;69812;42.632;23.440;2024-02-23T10:07:37;94811.34;;;12.44;45.69
68179;BME280;69812;42.632;23.440;2024-02-23T10:10:07;94816.22;;;12.47;44.68
68179;BME280;69812;42.632;23.440;2024-02-23T10:12:33;94821.13;;;12.67;44.70
68179;BME280;69812;42.632;23.440;2024-02-23T10:14:59;94806.81;;;12.72;45.14
68179;BME280;69812;42.632;23.440;2024-02-23T10:17:24;94808.69;;;12.88;45.11
68179;BME280;69812;42.632;23.440;2024-02-23T10:19:49;94813.44;;;12.75;43.80
68179;BME280;69812;42.632;23.440;2024-02-23T10:22:17;94806.41;;;12.85;44.72
68179;BME280;69812;42.632;23.440;2024-02-23T10:24:42;94793.69;;;12.92;43.50
68179;BME280;69812;42.632;23.440;2024-02-23T10:27:08;94799.50;;;12.94;43.94
68179;BME280;69812;42.632;23.440;2024-02-23T10:29:34;94805.44;;;12.86;43.68
68179;BME280;69812;42.632;23.440;2024-02-23T10:32:01;94792.75;;;12.93;42.24
68179;BME280;69812;42.632;23.440;2024-02-23T10:34:29;94796.63;;;13.05;42.52
68179;BME280;69812;42.632;23.440;2024-02-23T10:36:55;94783.00;;;13.21;42.91
68179;BME280;69812;42.632;23.440;2024-02-23T10:39:22;94786.63;;;13.53;42.46
68179;BME280;69812;42.632;23.440;2024-02-23T10:41:57;94798.69;;;13.44;41.14
68179;BME280;69812;42.632;23.440;2024-02-23T10:44:28;94790.00;;;13.62;42.28
68179;BME280;69812;42.632;23.440;2024-02-23T10:47:04;94786.81;;;13.51;41.91
68179;BME280;69812;42.632;23.440;2024-02-23T10:49:32;94784.53;;;13.48;41.01
68179;BME280;69812;42.632;23.440;2024-02-23T10:51:58;94784.69;;;13.96;40.96
68179;BME280;69812;42.632;23.440;2024-02-23T10:54:24;94782.13;;;14.04;39.64
68179;BME280;69812;42.632;23.440;2024-02-23T10:56:51;94783.56;;;14.15;39.21
68179;BME280;69812;42.632;23.440;2024-02-23T10:59:17;94766.47;;;14.06;38.79
68179;BME280;69812;42.632;23.440;2024-02-23T11:01:49;94774.97;;;14.31;38.82
68179;BME280;69812;42.632;23.440;2024-02-23T11:04:17;94770.50;;;14.08;38.63
68179;BME280;69812;42.632;23.440;2024-02-23T11:06:49;94760.19;;;13.92;39.12
68179;BME280;69812;42.632;23.440;2024-02-23T11:09:14;94751.81;;;13.98;39.45
68179;BME280;69812;42.632;23.440;2024-02-23T11:11:39;94741.50;;;13.90;38.75
68179;BME280;69812;42.632;23.440;2024-02-23T11:14:15;94738.25;;;14.04;39.53
68179;BME280;69812;42.632;23.440;2024-02-23T11:16:41;94742.78;;;13.94;37.87
68179;BME280;69812;42.632;23.440;2024-02-23T11:19:09;94744.66;;;14.25;38.41
68179;BME280;69812;42.632;23.440;2024-02-23T11:21:37;94733.66;;;14.31;37.39
68179;BME280;69812;42.632;23.440;2024-02-23T11:24:04;94729.16;;;14.25;38.43
68179;BME280;69812;42.632;23.440;2024-02-23T11:26:30;94727.56;;;14.24;38.16
68179;BME280;69812;42.632;23.440;2024-02-23T11:28:57;94723.31;;;14.47;37.75
68179;BME280;69812;42.632;23.440;2024-02-23T11:31:24;94730.00;;;14.73;37.23
68179;BME280;69812;42.632;23.440;2024-02-23T11:33:54;94728.09;;;14.98;37.38
68179;BME280;69812;42.632;23.440;2024-02-23T11:36:31;94717.88;;;15.05;36.95
68179;BME280;69812;42.632;23.440;2024-02-23T11:38:59;94733.13;;;15.23;37.81
68179;BME280;69812;42.632;23.440;2024-02-23T11:41:25;94723.13;;;15.43;35.99
68179;BME280;69812;42.632;23.440;2024-02-23T11:43:55;94709.91;;;15.37;36.10
68179;BME280;69812;42.632;23.440;2024-02-23T11:46:21;94710.16;;;15.28;37.24
68179;BME280;69812;42.632;23.440;2024-02-23T11:48:48;94717.84;;;15.36;38.45
68179;BME280;69812;42.632;23.440;2024-02-23T11:51:21;94716.00;;;15.45;37.00
68179;BME280;69812;42.632;23.440;2024-02-23T11:53:48;94708.19;;;15.53;37.16
68179;BME280;69812;42.632;23.440;2024-02-23T11:56:14;94697.75;;;15.46;37.00
68179;BME280;69812;42.632;23.440;2024-02-23T11:58:41;94711.47;;;15.47;37.37
68179;BME280;69812;42.632;23.440;2024-02-23T12:01:06;94701.41;;;15.29;37.74
68179;BME280;69812;42.632;23.440;2024-02-23T12:03:32;94683.19;;;15.22;36.62
68179;BME280;69812;42.632;23.440;2024-02-23T12:06:01;94690.47;;;15.27;37.64
68179;BME280;69812;42.632;23.440;2024-02-23T12:08:28;94684.75;;;15.08;36.98
68179;BME280;69812;42.632;23.440;2024-02-23T12:10:54;94688.56;;;15.20;37.84
68179;BME280;69812;42.632;23.440;2024-02-23T12:13:22;94692.28;;;15.41;36.97
68179;BME280;69812;42.632;23.440;2024-02-23T12:15:51;94684.50;;;15.41;36.51
68179;BME280;69812;42.632;23.440;2024-02-23T12:18:18;94699.97;;;15.49;35.66
68179;BME280;69812;42.632;23.440;2024-02-23T12:20:47;94694.34;;;15.46;37.68
68179;BME280;69812;42.632;23.440;2024-02-23T12:23:13;94684.72;;;15.54;36.56
68179;BME280;69812;42.632;23.440;2024-02-23T12:25:38;94689.31;;;15.67;36.57
68179;BME280;69812;42.632;23.440;2024-02-23T12:28:04;94674.25;;;15.71;37.28
68179;BME280;69812;42.632;23.440;2024-02-23T12:30:30;94683.50;;;15.88;35.34
68179;BME280;69812;42.632;23.440;2024-02-23T12:33:09;94670.88;;;15.70;34.85
68179;BME280;69812;42.632;23.440;2024-02-23T12:35:35;94682.41;;;15.82;36.15
68179;BME280;69812;42.632;23.440;2024-02-23T12:38:08;94669.66;;;15.81;36.05
68179;BME280;69812;42.632;23.440;2024-02-23T12:40:37;94656.66;;;15.66;36.46
68179;BME280;69812;42.632;23.440;2024-02-23T12:43:02;94662.28;;;15.70;36.74
68179;BME280;69812;42.632;23.440;2024-02-23T12:45:30;94651.94;;;15.70;35.94
68179;BME280;69812;42.632;23.440;2024-02-23T12:47:57;94645.41;;;15.97;37.16
68179;BME280;69812;42.632;23.440;2024-02-23T12:50:30;94650.28;;;16.07;37.36
68179;BME280;69812;42.632;23.440;2024-02-23T12:52:56;94631.56;;;15.90;35.94